createdAt,value
2022-12-08T00:01:30.348Z,14.57
2022-12-08T00:03:58.956Z,15.87
2022-12-08T00:06:53.212Z,14.80
2022-12-08T00:09:39.175Z,14.60
2022-12-08T00:12:11.499Z,15.10
2022-12-08T00:14:40.210Z,14.60
2022-12-08T00:17:08.463Z,15.20
2022-12-08T00:19:35.203Z,15.47
2022-12-08T00:22:03.294Z,15.77
2022-12-08T00:24:31.887Z,14.83
2022-12-08T00:26:58.572Z,15.93
2022-12-08T00:29:25.170Z,15.90
2022-12-08T00:31:51.908Z,14.23
2022-12-08T00:34:18.608Z,15.53
2022-12-08T00:36:45.455Z,15.93
2022-12-08T00:39:13.324Z,15.97
2022-12-08T00:41:58.460Z,15.33
2022-12-08T00:44:25.173Z,15.70
2022-12-08T00:46:51.827Z,14.83
2022-12-08T00:49:18.916Z,14.70
2022-12-08T00:51:45.562Z,16.83
2022-12-08T00:54:12.579Z,14.60
2022-12-08T00:56:39.219Z,15.07
2022-12-08T00:59:08.168Z,14.90
2022-12-08T01:01:35.849Z,16.23
2022-12-08T01:04:04.779Z,16.37
2022-12-08T01:06:36.986Z,15.33
2022-12-08T01:09:04.923Z,16.17
2022-12-08T01:11:32.477Z,16.13
2022-12-08T01:13:59.330Z,15.70
2022-12-08T01:16:27.811Z,16.30
2022-12-08T01:18:54.717Z,16.10
2022-12-08T01:21:21.944Z,15.80
2022-12-08T01:23:48.710Z,15.97
2022-12-08T01:26:16.840Z,17.57
2022-12-08T01:28:43.998Z,17.37
2022-12-08T01:31:17.268Z,16.80
2022-12-08T01:33:45.384Z,16.77
2022-12-08T01:36:26.872Z,17.10
2022-12-08T01:38:54.480Z,16.17
2022-12-08T01:41:23.484Z,16.40
2022-12-08T01:44:10.712Z,16.80
2022-12-08T01:46:42.574Z,16.57
2022-12-08T01:49:18.518Z,15.83
2022-12-08T01:51:59.201Z,16.50
2022-12-08T01:54:29.578Z,15.43
2022-12-08T01:57:02.337Z,16.10
2022-12-08T01:59:29.946Z,17.73
2022-12-08T02:01:57.245Z,17.83
2022-12-08T02:04:23.845Z,16.63
2022-12-08T02:06:51.956Z,16.70
2022-12-08T02:09:19.640Z,18.00
2022-12-08T02:11:46.324Z,17.23
2022-12-08T02:14:13.850Z,17.57
2022-12-08T02:16:49.525Z,19.27
2022-12-08T02:19:48.003Z,17.20
2022-12-08T02:22:30.734Z,17.60
2022-12-08T02:25:31.772Z,18.07
2022-12-08T02:28:04.633Z,17.23
2022-12-08T02:30:49.201Z,17.87
2022-12-08T02:33:43.837Z,19.00
2022-12-08T02:36:23.339Z,18.60
2022-12-08T02:39:01.143Z,17.20
2022-12-08T02:41:46.479Z,17.20
2022-12-08T02:44:21.734Z,17.27
2022-12-08T02:46:53.659Z,17.23
2022-12-08T02:49:20.287Z,16.67
2022-12-08T02:51:46.894Z,16.90
2022-12-08T02:54:14.415Z,17.67
2022-12-08T02:57:16.584Z,17.27
2022-12-08T02:59:55.128Z,17.33
2022-12-08T03:02:31.308Z,17.17
2022-12-08T03:05:16.398Z,17.33
2022-12-08T03:07:54.000Z,17.10
2022-12-08T03:10:30.114Z,17.80
2022-12-08T03:13:02.923Z,17.50
2022-12-08T03:15:30.641Z,17.40
2022-12-08T03:17:59.388Z,16.73
2022-12-08T03:20:28.161Z,16.70
2022-12-08T03:22:56.699Z,18.10
2022-12-08T03:25:28.016Z,18.00
2022-12-08T03:27:54.649Z,16.33
2022-12-08T03:30:21.565Z,15.60
2022-12-08T03:33:09.420Z,16.00
2022-12-08T03:35:39.546Z,16.20
2022-12-08T03:38:14.851Z,16.20
2022-12-08T03:40:42.043Z,16.37
2022-12-08T03:43:08.667Z,16.53
2022-12-08T03:45:35.662Z,15.37
2022-12-08T03:48:02.344Z,16.30
2022-12-08T03:50:28.960Z,15.37
2022-12-08T03:52:55.529Z,16.10
2022-12-08T03:55:22.154Z,15.97
2022-12-08T03:57:48.684Z,15.80
2022-12-08T04:00:16.889Z,15.30
2022-12-08T04:02:43.685Z,16.00
2022-12-08T04:05:13.608Z,14.60
2022-12-08T04:07:40.348Z,14.73
2022-12-08T04:10:07.849Z,16.20
2022-12-08T04:12:34.641Z,14.30
2022-12-08T04:15:01.234Z,14.20
2022-12-08T04:17:30.124Z,15.17
2022-12-08T04:19:56.701Z,14.63
2022-12-08T04:22:23.300Z,13.90
2022-12-08T04:24:50.051Z,13.90
2022-12-08T04:27:16.723Z,13.60
2022-12-08T04:29:45.596Z,14.93
2022-12-08T04:32:12.211Z,14.00
2022-12-08T04:34:38.977Z,13.83
2022-12-08T04:37:05.614Z,13.13
2022-12-08T04:39:32.196Z,13.13
2022-12-08T04:41:58.942Z,12.70
2022-12-08T04:44:25.552Z,12.47
2022-12-08T04:46:52.232Z,13.17
2022-12-08T04:49:18.926Z,12.67
2022-12-08T04:51:45.533Z,12.23
2022-12-08T04:54:12.162Z,13.47
2022-12-08T04:56:38.826Z,13.17
2022-12-08T04:59:05.601Z,13.00
2022-12-08T05:01:32.519Z,12.80
2022-12-08T05:03:59.262Z,12.07
2022-12-08T05:06:25.940Z,12.60
2022-12-08T05:08:55.009Z,11.90
2022-12-08T05:11:21.532Z,12.90
2022-12-08T05:13:48.356Z,12.23
2022-12-08T05:16:17.911Z,11.57
2022-12-08T05:18:44.831Z,11.60
2022-12-08T05:21:11.645Z,11.07
2022-12-08T05:23:38.422Z,11.67
2022-12-08T05:26:05.222Z,11.07
2022-12-08T05:28:41.324Z,10.67
2022-12-08T05:31:08.845Z,9.63
2022-12-08T05:33:35.598Z,10.53
2022-12-08T05:36:02.337Z,9.90
2022-12-08T05:38:29.540Z,10.47
2022-12-08T05:40:56.147Z,9.60
2022-12-08T05:43:22.740Z,11.30
2022-12-08T05:45:49.356Z,10.30
2022-12-08T05:48:16.487Z,10.77
2022-12-08T05:50:49.681Z,10.80
2022-12-08T05:53:17.803Z,10.90
2022-12-08T05:56:04.053Z,11.33
2022-12-08T05:58:30.612Z,12.57
2022-12-08T06:00:57.206Z,12.27
2022-12-08T06:03:25.483Z,13.07
2022-12-08T06:05:52.128Z,13.00
2022-12-08T06:08:18.809Z,13.20
2022-12-08T06:10:46.131Z,12.67
2022-12-08T06:13:13.378Z,12.90
2022-12-08T06:15:40.590Z,14.57
2022-12-08T06:18:10.687Z,13.53
2022-12-08T06:20:37.327Z,13.30
2022-12-08T06:23:03.926Z,14.00
2022-12-08T06:25:30.552Z,14.50
2022-12-08T06:27:57.222Z,14.57
2022-12-08T06:30:23.942Z,14.73
2022-12-08T06:32:50.546Z,15.60
2022-12-08T06:35:17.238Z,15.07
2022-12-08T06:37:43.844Z,14.80
2022-12-08T06:40:10.850Z,14.57
2022-12-08T06:42:49.585Z,14.20
2022-12-08T06:45:17.597Z,15.27
2022-12-08T06:47:44.559Z,14.37
2022-12-08T06:50:12.100Z,14.07
2022-12-08T06:52:49.261Z,14.97
2022-12-08T06:55:42.547Z,13.13
2022-12-08T06:58:06.556Z,13.57
2022-12-08T07:00:33.311Z,14.67
2022-12-08T07:03:00.005Z,14.57
2022-12-08T07:05:26.705Z,13.70
2022-12-08T07:07:53.430Z,13.60
2022-12-08T07:10:20.120Z,13.80
2022-12-08T07:12:46.705Z,13.97
2022-12-08T07:15:13.455Z,13.50
2022-12-08T07:17:40.072Z,13.40
2022-12-08T07:20:07.741Z,14.03
2022-12-08T07:22:34.485Z,14.10
2022-12-08T07:25:01.093Z,13.63
2022-12-08T07:27:31.175Z,13.00
2022-12-08T07:30:12.335Z,13.70
2022-12-08T07:32:41.335Z,14.37
2022-12-08T07:35:13.959Z,15.40
2022-12-08T07:37:45.393Z,15.10
2022-12-08T07:40:15.610Z,15.50
2022-12-08T07:43:26.744Z,15.33
2022-12-08T07:46:10.007Z,14.10
2022-12-08T07:51:48.729Z,14.67
2022-12-08T07:55:05.279Z,15.47
2022-12-08T07:57:39.829Z,14.13
2022-12-08T08:00:07.789Z,14.60
2022-12-08T08:02:49.190Z,16.50
2022-12-08T08:05:17.171Z,14.40
2022-12-08T08:19:55.630Z,14.00
2022-12-08T08:23:01.710Z,12.83
2022-12-08T08:26:06.014Z,14.00
2022-12-08T08:28:47.994Z,12.67
2022-12-08T08:31:33.893Z,13.23
2022-12-08T08:34:29.360Z,13.10
2022-12-08T08:43:41.690Z,11.13
2022-12-08T08:46:52.418Z,11.63
2022-12-08T08:49:29.139Z,10.20
2022-12-08T08:51:58.982Z,10.37
2022-12-08T08:55:13.821Z,10.03
2022-12-08T08:57:43.958Z,9.73
2022-12-08T09:00:31.603Z,9.17
2022-12-08T09:02:59.922Z,9.10
2022-12-08T09:06:18.983Z,9.53
2022-12-08T09:09:02.562Z,9.10
2022-12-08T09:15:03.389Z,8.33
2022-12-08T09:18:02.104Z,8.03
2022-12-08T09:20:34.857Z,7.70
2022-12-08T09:23:01.768Z,7.13
2022-12-08T09:25:28.609Z,5.93
2022-12-08T09:27:55.378Z,5.97
2022-12-08T09:30:32.666Z,5.20
2022-12-08T09:33:00.415Z,2.90
2022-12-08T09:35:27.039Z,2.90
2022-12-08T09:41:11.573Z,2.90
2022-12-08T09:47:44.980Z,2.57
2022-12-08T09:50:27.884Z,2.70
2022-12-08T09:53:18.516Z,3.30
2022-12-08T09:55:59.396Z,3.27
2022-12-08T09:58:53.836Z,3.50
2022-12-08T10:01:22.802Z,3.47
2022-12-08T10:03:49.916Z,3.13
2022-12-08T10:06:35.178Z,3.20
2022-12-08T10:09:22.939Z,3.27
2022-12-08T10:12:00.735Z,4.23
2022-12-08T10:15:16.969Z,4.63
2022-12-08T10:17:48.607Z,5.63
2022-12-08T10:20:35.460Z,5.60
2022-12-08T10:23:10.934Z,5.47
2022-12-08T10:26:03.348Z,5.70
2022-12-08T10:28:44.777Z,5.40
2022-12-08T10:31:25.062Z,5.23
2022-12-08T10:34:05.077Z,5.83
2022-12-08T10:36:51.056Z,4.90
2022-12-08T10:39:35.065Z,5.67
2022-12-08T10:42:16.076Z,5.33
2022-12-08T10:45:15.400Z,5.50
2022-12-08T10:47:52.325Z,5.80
2022-12-08T10:50:58.818Z,6.00
2022-12-08T10:53:30.450Z,6.60
2022-12-08T10:56:03.213Z,7.13
2022-12-08T10:58:48.082Z,7.40
2022-12-08T11:04:20.313Z,6.90
2022-12-08T11:06:55.316Z,7.63
2022-12-08T11:10:02.071Z,7.43
2022-12-08T11:12:30.605Z,8.87
2022-12-08T11:15:06.871Z,7.60
2022-12-08T11:17:41.741Z,8.00
2022-12-08T11:20:32.173Z,7.77
2022-12-08T11:22:59.114Z,8.27
2022-12-08T11:25:27.647Z,8.63
2022-12-08T11:28:00.627Z,7.60
2022-12-08T11:30:38.086Z,8.70
2022-12-08T11:33:30.269Z,8.83
2022-12-08T11:36:01.122Z,8.70
2022-12-08T11:38:28.735Z,8.70
2022-12-08T11:41:10.941Z,9.17
2022-12-08T11:43:48.565Z,8.17
2022-12-08T11:46:26.518Z,8.37
2022-12-08T11:49:05.639Z,8.90
2022-12-08T11:51:40.272Z,8.30
2022-12-08T11:54:16.880Z,8.43
2022-12-08T11:57:03.286Z,8.83
2022-12-08T11:59:33.408Z,8.97
2022-12-08T12:02:01.496Z,8.40
2022-12-08T12:04:52.774Z,8.60
2022-12-08T12:07:59.070Z,8.60
2022-12-08T12:10:33.840Z,8.20
2022-12-08T12:13:22.056Z,9.33
2022-12-08T12:16:06.707Z,9.27
2022-12-08T12:19:03.758Z,8.40
2022-12-08T12:21:48.763Z,8.80
2022-12-08T12:24:25.319Z,7.97
2022-12-08T12:27:02.453Z,8.77
2022-12-08T12:29:37.449Z,8.47
2022-12-08T12:32:09.217Z,8.47
2022-12-08T12:34:53.848Z,8.40
2022-12-08T12:37:26.552Z,7.70
2022-12-08T12:39:53.165Z,8.10
2022-12-08T12:42:38.626Z,7.73
2022-12-08T12:45:11.547Z,7.27
2022-12-08T12:47:56.561Z,6.97
2022-12-08T12:50:41.712Z,7.63
2022-12-08T12:53:17.950Z,8.30
2022-12-08T12:56:04.082Z,7.43
2022-12-08T12:58:30.636Z,7.90
2022-12-08T13:01:12.723Z,7.57
2022-12-08T13:03:42.503Z,8.00
2022-12-08T13:06:14.679Z,8.07
2022-12-08T13:08:50.666Z,7.60
2022-12-08T13:11:17.521Z,7.90
2022-12-08T13:14:04.030Z,7.60
2022-12-08T13:16:35.959Z,8.37
2022-12-08T13:19:05.191Z,7.90
2022-12-08T13:21:34.084Z,7.90
2022-12-08T13:24:27.490Z,6.53
2022-12-08T13:27:03.084Z,7.30
2022-12-08T13:29:31.038Z,7.20
2022-12-08T13:32:04.943Z,7.53
2022-12-08T13:34:41.227Z,7.23
2022-12-08T13:37:10.749Z,6.53
2022-12-08T13:39:40.245Z,6.23
2022-12-08T13:42:12.729Z,6.90
2022-12-08T13:47:34.664Z,5.93
2022-12-08T13:58:40.139Z,6.33
2022-12-08T14:01:13.051Z,5.43
2022-12-08T14:06:46.850Z,6.10
2022-12-08T14:09:19.386Z,6.47
2022-12-08T14:11:51.555Z,11.40
2022-12-08T14:15:02.529Z,12.23
2022-12-08T14:17:21.380Z,6.27
2022-12-08T14:19:58.312Z,7.37
2022-12-08T14:22:25.381Z,5.93
2022-12-08T14:24:54.019Z,5.80
2022-12-08T14:27:26.106Z,5.10
2022-12-08T14:29:55.558Z,6.10
2022-12-08T14:32:30.541Z,4.93
2022-12-08T14:35:09.812Z,5.40
2022-12-08T14:37:44.410Z,4.70
2022-12-08T14:40:49.487Z,5.20
2022-12-08T14:43:19.032Z,5.00
2022-12-08T14:45:45.574Z,3.97
2022-12-08T14:48:38.179Z,4.73
2022-12-08T14:51:07.645Z,4.77
2022-12-08T14:53:40.616Z,4.73
2022-12-08T14:56:14.808Z,4.70
2022-12-08T14:58:41.629Z,4.60
2022-12-08T15:01:11.376Z,4.90
2022-12-08T15:03:38.069Z,4.90
2022-12-08T15:06:06.734Z,5.30
2022-12-08T15:08:33.909Z,4.43
2022-12-08T15:11:22.236Z,5.27
2022-12-08T15:13:50.850Z,5.20
2022-12-08T15:16:37.230Z,4.40
2022-12-08T15:19:28.298Z,4.97
2022-12-08T15:21:57.871Z,4.93
2022-12-08T15:24:27.030Z,6.33
2022-12-08T15:26:53.851Z,6.67
2022-12-08T15:29:26.111Z,4.93
2022-12-08T15:31:55.038Z,5.30
2022-12-08T15:34:21.809Z,6.37
2022-12-08T15:36:50.835Z,6.23
2022-12-08T15:39:37.160Z,6.30
2022-12-08T15:42:06.568Z,6.30
2022-12-08T15:44:33.326Z,6.17
2022-12-08T15:47:00.187Z,6.20
2022-12-08T15:49:26.979Z,6.20
2022-12-08T15:52:05.004Z,7.90
2022-12-08T15:54:37.170Z,6.80
2022-12-08T15:57:19.007Z,7.20
2022-12-08T15:59:47.213Z,9.80
2022-12-08T16:02:18.020Z,16.17
2022-12-08T16:05:33.485Z,9.77
2022-12-08T16:07:38.049Z,11.07
2022-12-08T16:10:06.459Z,10.13
2022-12-08T16:15:57.102Z,7.90
2022-12-08T16:18:27.976Z,8.03
2022-12-08T16:21:22.900Z,8.30
2022-12-08T16:23:43.470Z,8.27
2022-12-08T16:27:06.809Z,8.90
2022-12-08T16:29:08.858Z,8.33
2022-12-08T16:31:35.555Z,8.07
2022-12-08T16:34:02.418Z,8.50
2022-12-08T16:36:31.911Z,9.60
2022-12-08T16:38:58.584Z,9.83
2022-12-08T16:41:43.764Z,7.90
2022-12-08T16:44:10.520Z,8.90
2022-12-08T16:46:37.227Z,8.90
2022-12-08T16:49:04.835Z,8.60
2022-12-08T16:51:36.183Z,9.10
2022-12-08T16:54:05.153Z,9.17
2022-12-08T16:56:33.468Z,9.10
2022-12-08T16:59:05.941Z,9.33
2022-12-08T17:01:37.736Z,9.67
2022-12-08T17:04:30.478Z,9.13
2022-12-08T17:06:52.970Z,9.20
2022-12-08T17:09:19.761Z,9.87
2022-12-08T17:11:46.386Z,10.63
2022-12-08T17:14:13.761Z,9.43
2022-12-08T17:16:41.109Z,9.30
2022-12-08T17:19:07.897Z,9.90
2022-12-08T17:21:34.668Z,10.00
2022-12-08T17:24:01.413Z,9.63
2022-12-08T17:26:28.071Z,9.50
2022-12-08T17:29:01.816Z,10.37
2022-12-08T17:31:40.763Z,9.33
2022-12-08T17:34:12.108Z,9.47
2022-12-08T17:36:38.841Z,9.63
2022-12-08T17:39:06.078Z,10.00
2022-12-08T17:41:34.297Z,10.20
2022-12-08T17:44:00.920Z,11.27
2022-12-08T17:46:27.599Z,11.10
2022-12-08T17:48:54.277Z,10.23
2022-12-08T17:51:20.975Z,10.63
2022-12-08T17:53:47.640Z,12.00
2022-12-08T17:56:19.385Z,10.70
2022-12-08T17:58:54.235Z,11.50
2022-12-08T18:01:21.703Z,10.40
2022-12-08T18:03:48.464Z,10.27
2022-12-08T18:06:15.145Z,11.80
2022-12-08T18:08:41.804Z,12.00
2022-12-08T18:11:17.957Z,12.00
2022-12-08T18:13:45.628Z,12.77
2022-12-08T18:16:12.440Z,13.50
2022-12-08T18:18:39.072Z,13.33
2022-12-08T18:21:16.373Z,12.20
2022-12-08T18:23:52.235Z,12.83
2022-12-08T18:26:24.339Z,12.93
2022-12-08T18:31:52.076Z,12.40
2022-12-08T18:34:26.641Z,12.93
2022-12-08T18:36:55.541Z,12.20
2022-12-08T18:39:28.268Z,13.23
2022-12-08T18:41:57.668Z,11.77
2022-12-08T18:44:24.287Z,13.80
2022-12-08T18:46:51.106Z,10.80
2022-12-08T18:49:19.062Z,10.73
2022-12-08T18:51:46.181Z,11.63
2022-12-08T18:54:15.126Z,11.23
2022-12-08T18:56:41.769Z,10.80
2022-12-08T18:59:11.342Z,11.00
2022-12-08T19:01:39.795Z,9.60
2022-12-08T19:06:56.361Z,8.20
2022-12-08T19:09:23.097Z,8.53
2022-12-08T19:11:50.065Z,8.20
2022-12-08T19:14:16.835Z,7.67
2022-12-08T19:16:43.453Z,7.70
2022-12-08T19:19:12.386Z,7.20
2022-12-08T19:21:43.014Z,7.97
2022-12-08T19:24:12.867Z,7.37
2022-12-08T19:26:42.335Z,7.30
2022-12-08T19:29:09.596Z,6.80
2022-12-08T19:31:36.296Z,6.13
2022-12-08T19:34:05.320Z,6.40
2022-12-08T19:36:38.079Z,6.13
2022-12-08T19:39:23.744Z,7.13
2022-12-08T19:42:09.481Z,6.43
2022-12-08T19:44:54.334Z,8.20
2022-12-08T19:47:26.807Z,9.60
2022-12-08T19:49:55.159Z,9.87
2022-12-08T19:52:39.281Z,9.90
2022-12-08T19:55:06.091Z,8.47
2022-12-08T19:57:32.689Z,7.83
2022-12-08T20:00:02.553Z,7.70
2022-12-08T20:02:38.999Z,7.83
2022-12-08T20:05:06.419Z,7.47
2022-12-08T20:07:33.298Z,8.80
2022-12-08T20:10:08.112Z,7.90
2022-12-08T20:12:35.444Z,8.10
2022-12-08T20:15:02.187Z,8.07
2022-12-08T20:17:39.037Z,7.53
2022-12-08T20:20:07.637Z,7.23
2022-12-08T20:22:35.056Z,6.33
2022-12-08T20:25:07.894Z,7.30
2022-12-08T20:27:34.674Z,7.20
2022-12-08T20:30:01.545Z,6.80
2022-12-08T20:32:28.270Z,6.17
2022-12-08T20:35:01.113Z,6.40
2022-12-08T20:37:27.811Z,7.27
2022-12-08T20:40:00.626Z,6.10
2022-12-08T20:42:30.848Z,6.90
2022-12-08T20:44:57.617Z,6.50
2022-12-08T20:47:30.210Z,6.90
2022-12-08T20:49:57.285Z,6.50
2022-12-08T20:52:24.128Z,6.53
2022-12-08T20:55:02.388Z,6.50
2022-12-08T20:57:31.528Z,7.00
2022-12-08T21:00:06.581Z,6.53
2022-12-08T21:02:47.769Z,6.00
2022-12-08T21:05:39.456Z,6.50
2022-12-08T21:08:18.975Z,5.67
2022-12-08T21:10:57.935Z,6.30
2022-12-08T21:13:27.002Z,5.77
2022-12-08T21:16:01.859Z,6.37
2022-12-08T21:18:31.213Z,6.83
2022-12-08T21:21:18.775Z,6.40
2022-12-08T21:26:39.766Z,6.50
2022-12-08T21:29:29.256Z,7.70
2022-12-08T21:32:10.323Z,9.50
2022-12-08T21:34:39.750Z,11.67
2022-12-08T21:37:54.260Z,16.37
2022-12-08T21:40:23.492Z,16.60
2022-12-08T21:43:00.902Z,18.97
2022-12-08T21:45:47.006Z,20.00
2022-12-08T21:51:59.185Z,20.10
2022-12-08T21:54:28.997Z,20.47
2022-12-08T21:59:58.744Z,16.90
2022-12-08T22:02:38.852Z,17.83
2022-12-08T22:05:11.950Z,18.77
2022-12-08T22:07:39.873Z,17.87
2022-12-08T22:10:31.588Z,17.57
2022-12-08T22:13:32.399Z,18.57
2022-12-08T22:16:42.276Z,16.77
2022-12-08T22:26:07.551Z,14.40
2022-12-08T22:28:49.768Z,13.50
2022-12-08T22:31:40.540Z,14.33
2022-12-08T22:34:24.475Z,13.30
2022-12-08T22:37:04.736Z,14.80
2022-12-08T22:39:35.963Z,15.43
2022-12-08T22:42:07.457Z,15.20
2022-12-08T22:44:37.193Z,14.87
2022-12-08T22:47:07.101Z,15.93
2022-12-08T22:49:59.328Z,14.33
2022-12-08T22:52:31.072Z,13.40
2022-12-08T22:55:04.326Z,13.60
2022-12-08T22:57:30.964Z,14.57
2022-12-08T23:00:00.955Z,14.70
2022-12-08T23:02:27.832Z,15.47
2022-12-08T23:05:05.389Z,14.93
2022-12-08T23:07:35.151Z,14.80
2022-12-08T23:10:04.981Z,14.07
2022-12-08T23:12:36.137Z,14.13
2022-12-08T23:15:02.974Z,13.97
2022-12-08T23:17:32.742Z,14.20
2022-12-08T23:20:20.349Z,14.63
2022-12-08T23:22:52.552Z,15.27
2022-12-08T23:25:22.502Z,15.23
2022-12-08T23:27:52.054Z,15.47
2022-12-08T23:30:24.969Z,14.80
2022-12-08T23:33:05.602Z,15.07
2022-12-08T23:35:33.264Z,14.17
2022-12-08T23:38:00.350Z,14.60
2022-12-08T23:40:36.231Z,14.00
2022-12-08T23:43:08.107Z,14.70
2022-12-08T23:45:37.206Z,15.57
2022-12-08T23:48:05.704Z,15.10
2022-12-08T23:50:34.475Z,16.13
2022-12-08T23:53:04.275Z,15.37
2022-12-08T23:55:37.122Z,14.73
2022-12-08T23:58:10.213Z,14.30
